Arroyo Seco, Argentina
Current Conditions -  °F | °C
As of 1:00 AM on Tuesday 21 Oct 2014 (Local Time) from SAAR Reporting Station
Clear Clear  
Wind Chill: 66°   Ceiling: Unl
Heat Index: 66°   Visibility: 6mi
Dew Point: 54°   Wind: 8mph
Humidity: 64%   Direction: 20°NNE
Pressure: 30.06"   Gusts: NA
Location:  33.15°S, 60.52°W
Report Text: SAAR 210400Z 02007KT CAVOK 19/12 Q1018
Loading
Personal Weather Stations






























Interactive Weather Map
Tropical Storm Tracking
New forecast layout! Learn more

10-Day Weather Forecast

Advertisements
Track Severe Weather on mobile